createdAt,value
2022-09-13T00:02:17.640Z,6.53
2022-09-13T00:04:45.469Z,6.78
2022-09-13T00:07:13.337Z,6.78
2022-09-13T00:09:42.450Z,6.18
2022-09-13T00:12:10.219Z,9.43
2022-09-13T00:14:38.240Z,6.15
2022-09-13T00:17:06.079Z,6.65
2022-09-13T00:19:34.029Z,6.43
2022-09-13T00:22:01.825Z,6.05
2022-09-13T00:24:29.632Z,7.45
2022-09-13T00:26:58.737Z,8.77
2022-09-13T00:29:26.592Z,6.15
2022-09-13T00:31:54.901Z,7.70
2022-09-13T00:34:22.720Z,6.93
2022-09-13T00:36:50.508Z,6.82
2022-09-13T00:39:18.336Z,6.47
2022-09-13T00:41:46.123Z,6.97
2022-09-13T00:44:59.471Z,6.70
2022-09-13T00:47:34.933Z,7.35
2022-09-13T00:50:10.395Z,8.02
2022-09-13T00:52:44.933Z,7.07
2022-09-13T00:55:20.664Z,8.98
2022-09-13T00:57:48.746Z,7.97
2022-09-13T01:00:20.285Z,7.75
2022-09-13T01:02:51.516Z,10.50
2022-09-13T01:05:23.289Z,7.35
2022-09-13T01:07:51.921Z,8.48
2022-09-13T01:10:19.797Z,8.27
2022-09-13T01:12:53.803Z,9.00
2022-09-13T01:15:21.977Z,6.72
2022-09-13T01:17:53.405Z,7.90
2022-09-13T01:20:31.788Z,9.38
2022-09-13T01:23:41.403Z,9.10
2022-09-13T01:26:43.978Z,8.52
2022-09-13T01:29:29.533Z,9.02
2022-09-13T01:32:05.147Z,11.15
2022-09-13T01:34:43.612Z,9.77
2022-09-13T01:37:25.405Z,12.32
2022-09-13T01:40:06.532Z,9.82
2022-09-13T01:42:49.957Z,9.85
2022-09-13T01:45:29.471Z,12.13
2022-09-13T01:48:03.512Z,7.90
2022-09-13T01:50:39.986Z,10.75
2022-09-13T01:53:13.927Z,9.50
2022-09-13T01:55:47.640Z,8.45
2022-09-13T01:58:24.019Z,8.80
2022-09-13T02:00:57.570Z,8.95
2022-09-13T02:03:32.276Z,10.15
2022-09-13T02:06:03.865Z,10.48
2022-09-13T02:08:38.777Z,9.20
2022-09-13T02:11:11.220Z,8.88
2022-09-13T02:13:43.973Z,9.18
2022-09-13T02:16:17.643Z,7.97
2022-09-13T02:18:49.986Z,8.25
2022-09-13T02:21:21.009Z,9.40
2022-09-13T02:23:52.314Z,9.55
2022-09-13T02:26:22.785Z,9.68
2022-09-13T02:28:53.533Z,8.52
2022-09-13T02:31:41.501Z,10.27
2022-09-13T02:34:16.277Z,9.98
2022-09-13T02:36:48.610Z,8.30
2022-09-13T02:39:18.293Z,10.18
2022-09-13T02:41:52.893Z,10.02
2022-09-13T02:44:26.956Z,8.20
2022-09-13T02:47:08.024Z,8.77
2022-09-13T02:49:51.462Z,8.23
2022-09-13T02:52:31.062Z,8.50
2022-09-13T02:55:07.262Z,9.43
2022-09-13T02:57:40.147Z,10.05
2022-09-13T03:00:09.493Z,7.85
2022-09-13T03:02:40.441Z,8.15
2022-09-13T03:05:10.013Z,8.77
2022-09-13T03:07:37.780Z,10.55
2022-09-13T03:10:09.469Z,8.38
2022-09-13T03:13:05.368Z,8.20
2022-09-13T03:15:46.372Z,8.50
2022-09-13T03:18:30.685Z,8.40
2022-09-13T03:21:09.015Z,14.93
2022-09-13T03:23:45.977Z,7.82
2022-09-13T03:26:27.434Z,10.27
2022-09-13T03:29:04.037Z,9.15
2022-09-13T03:31:35.962Z,11.57
2022-09-13T03:34:11.159Z,7.75
2022-09-13T03:36:46.576Z,8.75
2022-09-13T03:39:23.095Z,9.65
2022-09-13T03:41:55.492Z,9.93
2022-09-13T03:44:26.579Z,9.60
2022-09-13T03:46:58.699Z,9.05
2022-09-13T03:49:28.991Z,9.02
2022-09-13T03:51:59.138Z,9.40
2022-09-13T03:54:31.422Z,10.57
2022-09-13T03:57:13.510Z,8.32
2022-09-13T03:59:45.467Z,8.95
2022-09-13T04:02:13.420Z,9.93
2022-09-13T04:04:42.598Z,9.18
2022-09-13T04:07:13.609Z,9.88
2022-09-13T04:09:41.439Z,11.13
2022-09-13T04:12:10.156Z,9.98
2022-09-13T04:14:37.960Z,11.55
2022-09-13T04:17:05.848Z,10.18
2022-09-13T04:19:33.828Z,10.07
2022-09-13T04:22:01.605Z,9.77
2022-09-13T04:24:31.320Z,10.73
2022-09-13T04:27:00.171Z,10.60
2022-09-13T04:29:28.128Z,12.77
2022-09-13T04:31:56.489Z,11.15
2022-09-13T04:34:24.811Z,13.35
2022-09-13T04:36:53.970Z,12.15
2022-09-13T04:39:23.681Z,10.60
2022-09-13T04:41:55.137Z,11.00
2022-09-13T04:44:24.175Z,10.98
2022-09-13T04:46:52.025Z,11.07
2022-09-13T04:49:21.825Z,10.73
2022-09-13T04:51:49.950Z,14.85
2022-09-13T04:54:17.713Z,11.35
2022-09-13T04:56:45.770Z,13.10
2022-09-13T04:59:15.229Z,10.15
2022-09-13T05:01:43.134Z,12.50
2022-09-13T05:04:11.315Z,11.43
2022-09-13T05:06:39.529Z,12.70
2022-09-13T05:09:07.330Z,13.93
2022-09-13T05:11:35.347Z,12.88
2022-09-13T05:14:04.139Z,12.40
2022-09-13T05:16:34.432Z,12.05
2022-09-13T05:19:02.932Z,14.85
2022-09-13T05:21:31.840Z,13.80
2022-09-13T05:23:59.811Z,13.40
2022-09-13T05:26:31.200Z,13.60
2022-09-13T05:28:59.016Z,13.68
2022-09-13T05:31:30.490Z,13.30
2022-09-13T05:34:01.528Z,14.88
2022-09-13T05:36:29.580Z,15.73
2022-09-13T05:39:26.064Z,14.57
2022-09-13T05:41:46.358Z,13.13
2022-09-13T05:44:14.124Z,13.43
2022-09-13T05:46:42.192Z,14.15
2022-09-13T05:49:13.564Z,12.95
2022-09-13T05:51:41.382Z,13.68
2022-09-13T05:54:12.255Z,14.63
2022-09-13T05:56:40.040Z,15.38
2022-09-13T05:59:08.857Z,15.27
2022-09-13T06:01:36.677Z,15.88
2022-09-13T06:04:04.691Z,15.45
2022-09-13T06:06:33.813Z,19.60
2022-09-13T06:09:01.558Z,17.25
2022-09-13T06:11:29.381Z,16.42
2022-09-13T06:13:57.107Z,13.52
2022-09-13T06:16:24.920Z,12.05
2022-09-13T06:18:52.739Z,14.00
2022-09-13T06:21:25.936Z,12.13
2022-09-13T06:23:57.541Z,13.10
2022-09-13T06:26:27.347Z,10.40
2022-09-13T06:28:56.733Z,11.82
2022-09-13T06:31:26.085Z,7.18
2022-09-13T06:33:57.893Z,8.93
2022-09-13T06:36:25.624Z,7.68
2022-09-13T06:38:53.415Z,7.25
2022-09-13T06:41:24.879Z,4.82
2022-09-13T06:43:54.988Z,7.25
2022-09-13T06:46:25.288Z,4.15
2022-09-13T06:48:53.613Z,4.85
2022-09-13T06:51:23.733Z,4.80
2022-09-13T06:53:52.833Z,5.07
2022-09-13T06:56:23.785Z,3.60
2022-09-13T06:58:53.498Z,3.47
2022-09-13T07:01:23.401Z,3.72
2022-09-13T07:03:53.001Z,4.00
2022-09-13T07:06:22.897Z,5.03
2022-09-13T07:08:52.200Z,3.58
2022-09-13T07:11:21.856Z,4.82
2022-09-13T07:13:51.528Z,3.15
2022-09-13T07:16:20.783Z,4.55
2022-09-13T07:18:53.186Z,6.03
2022-09-13T07:21:22.179Z,5.57
2022-09-13T07:23:50.344Z,2.83
2022-09-13T07:26:18.106Z,5.45
2022-09-13T07:28:48.588Z,7.72
2022-09-13T07:31:20.609Z,5.13
2022-09-13T07:33:49.252Z,4.22
2022-09-13T07:36:17.020Z,4.97
2022-09-13T07:38:45.734Z,3.78
2022-09-13T07:41:15.724Z,4.53
2022-09-13T07:43:43.877Z,2.33
2022-09-13T07:46:13.460Z,4.43
2022-09-13T07:48:44.220Z,5.03
2022-09-13T07:51:13.877Z,4.32
2022-09-13T07:53:42.973Z,3.85
2022-09-13T07:56:12.784Z,2.60
2022-09-13T07:58:41.824Z,3.03
2022-09-13T08:01:12.014Z,2.08
2022-09-13T08:03:40.070Z,4.22
2022-09-13T08:06:09.972Z,5.13
2022-09-13T08:08:38.494Z,4.75
2022-09-13T08:11:07.747Z,2.67
2022-09-13T08:13:35.633Z,2.80
2022-09-13T08:16:04.795Z,4.32
2022-09-13T08:18:33.516Z,3.13
2022-09-13T08:21:02.126Z,3.97
2022-09-13T08:23:31.215Z,3.38
2022-09-13T08:26:02.559Z,3.67
2022-09-13T08:28:31.484Z,3.38
2022-09-13T08:31:04.826Z,4.80
2022-09-13T08:33:33.253Z,3.33
2022-09-13T08:36:01.363Z,1.63
2022-09-13T08:38:31.008Z,2.38
2022-09-13T08:41:00.964Z,2.92
2022-09-13T08:43:41.374Z,3.33
2022-09-13T08:46:16.612Z,2.40
2022-09-13T08:48:47.087Z,3.80
2022-09-13T08:51:28.581Z,4.20
2022-09-13T08:53:59.072Z,1.75
2022-09-13T08:56:36.444Z,2.30
2022-09-13T08:59:26.186Z,3.03
2022-09-13T09:02:03.440Z,1.80
2022-09-13T09:04:39.038Z,1.88
2022-09-13T09:07:12.602Z,1.10
2022-09-13T09:09:47.784Z,3.17
2022-09-13T09:12:21.249Z,2.20
2022-09-13T09:14:59.999Z,3.03
2022-09-13T09:17:31.864Z,2.38
2022-09-13T09:20:10.012Z,5.57
2022-09-13T09:22:37.792Z,4.10
2022-09-13T09:25:11.703Z,5.28
2022-09-13T09:27:39.985Z,3.78
2022-09-13T09:30:13.457Z,4.95
2022-09-13T09:32:53.482Z,4.10
2022-09-13T09:35:31.534Z,4.22
2022-09-13T09:38:17.741Z,4.30
2022-09-13T09:40:47.084Z,2.17
2022-09-13T09:43:21.127Z,2.67
2022-09-13T09:45:50.633Z,3.22
2022-09-13T09:48:25.030Z,4.95
2022-09-13T09:50:58.224Z,5.57
2022-09-13T09:53:31.611Z,5.18
2022-09-13T09:56:16.600Z,3.72
2022-09-13T09:58:46.101Z,3.60
2022-09-13T10:01:22.656Z,7.60
2022-09-13T10:03:55.496Z,4.63
2022-09-13T10:06:27.664Z,4.00
2022-09-13T10:09:00.321Z,4.03
2022-09-13T10:11:47.664Z,3.03
2022-09-13T10:14:39.010Z,15.95
2022-09-13T10:17:19.522Z,8.43
2022-09-13T10:19:57.638Z,7.10
2022-09-13T10:22:26.669Z,8.40
2022-09-13T10:24:54.995Z,6.93
2022-09-13T10:27:35.764Z,2.83
2022-09-13T10:30:06.402Z,3.28
2022-09-13T10:32:34.888Z,5.13
2022-09-13T10:35:10.853Z,8.75
2022-09-13T10:37:43.417Z,4.15
2022-09-13T10:40:20.692Z,3.63
2022-09-13T10:42:54.805Z,5.72
2022-09-13T10:45:25.092Z,3.38
2022-09-13T10:47:55.528Z,3.38
2022-09-13T10:50:25.264Z,2.47
2022-09-13T10:52:54.493Z,2.65
2022-09-13T10:55:35.902Z,2.80
2022-09-13T10:58:21.053Z,4.93
2022-09-13T11:01:35.869Z,2.75
2022-09-13T11:04:55.998Z,2.70
2022-09-13T11:07:45.874Z,2.90
2022-09-13T11:10:22.019Z,10.73
2022-09-13T11:12:56.556Z,2.28
2022-09-13T11:15:40.195Z,4.07
2022-09-13T11:18:21.404Z,5.28
2022-09-13T11:20:59.027Z,2.22
2022-09-13T11:24:09.112Z,2.08
2022-09-13T11:26:47.071Z,3.00
2022-09-13T11:29:37.291Z,3.15
2022-09-13T11:32:18.916Z,3.58
2022-09-13T11:34:59.547Z,4.65
2022-09-13T11:37:40.982Z,4.15
2022-09-13T11:40:39.952Z,4.53
2022-09-13T11:43:26.507Z,2.42
2022-09-13T11:46:02.750Z,5.15
2022-09-13T11:48:53.638Z,3.63
2022-09-13T11:51:29.993Z,4.90
2022-09-13T11:54:12.997Z,2.92
2022-09-13T11:56:44.858Z,3.97
2022-09-13T11:59:22.356Z,2.88
2022-09-13T12:01:55.911Z,4.38
2022-09-13T12:04:33.528Z,2.85
2022-09-13T12:07:04.396Z,4.85
2022-09-13T12:09:36.840Z,4.55
2022-09-13T12:12:08.083Z,3.92
2022-09-13T12:14:44.721Z,1.30
2022-09-13T12:17:25.157Z,7.60
2022-09-13T12:19:57.179Z,2.05
2022-09-13T12:22:30.867Z,2.70
2022-09-13T12:25:03.351Z,3.35
2022-09-13T12:27:40.177Z,2.08
2022-09-13T12:30:15.972Z,4.57
2022-09-13T12:32:44.919Z,5.63
2022-09-13T12:35:22.028Z,3.47
2022-09-13T12:38:15.818Z,3.53
2022-09-13T12:41:03.769Z,6.38
2022-09-13T12:43:55.901Z,3.10
2022-09-13T12:46:56.375Z,3.60
2022-09-13T12:49:41.268Z,4.75
2022-09-13T12:52:24.574Z,3.95
2022-09-13T12:55:42.893Z,2.85
2022-09-13T12:58:40.023Z,4.53
2022-09-13T13:01:15.189Z,2.25
2022-09-13T13:03:52.649Z,3.13
2022-09-13T13:06:30.059Z,7.43
2022-09-13T13:09:01.915Z,1.50
2022-09-13T13:11:41.653Z,3.63
2022-09-13T13:14:41.601Z,1.73
2022-09-13T13:17:51.140Z,3.17
2022-09-13T13:20:41.836Z,4.60
2022-09-13T13:23:26.978Z,3.90
2022-09-13T13:26:33.976Z,5.10
2022-09-13T13:29:14.182Z,2.38
2022-09-13T13:32:10.420Z,2.30
2022-09-13T13:34:47.265Z,4.20
2022-09-13T13:37:38.016Z,2.85
2022-09-13T13:40:23.646Z,3.70
2022-09-13T13:43:07.724Z,2.55
2022-09-13T13:45:35.958Z,2.85
2022-09-13T13:48:35.308Z,4.18
2022-09-13T13:51:24.384Z,2.20
2022-09-13T13:53:56.040Z,2.25
2022-09-13T13:56:30.682Z,2.40
2022-09-13T13:59:05.424Z,7.53
2022-09-13T14:01:36.958Z,2.72
2022-09-13T14:04:38.323Z,2.30
2022-09-13T14:07:19.929Z,2.60
2022-09-13T14:09:56.135Z,2.72
2022-09-13T14:12:43.612Z,2.55
2022-09-13T14:15:29.903Z,2.88
2022-09-13T14:18:26.084Z,2.47
2022-09-13T14:21:01.482Z,3.42
2022-09-13T14:23:29.390Z,3.33
2022-09-13T14:25:59.182Z,7.43
2022-09-13T14:28:28.356Z,4.25
2022-09-13T14:30:59.238Z,4.63
2022-09-13T14:33:31.950Z,4.72
2022-09-13T14:36:03.214Z,2.45
2022-09-13T14:38:35.375Z,3.03
2022-09-13T14:41:13.470Z,3.67
2022-09-13T14:43:42.090Z,2.70
2022-09-13T14:46:16.113Z,5.85
2022-09-13T14:48:50.560Z,4.38
2022-09-13T14:51:22.995Z,3.95
2022-09-13T14:53:53.460Z,2.90
2022-09-13T14:56:29.708Z,4.00
2022-09-13T14:59:01.456Z,4.45
2022-09-13T15:01:33.975Z,2.63
2022-09-13T15:04:04.535Z,3.15
2022-09-13T15:06:35.047Z,2.20
2022-09-13T15:09:16.454Z,3.53
2022-09-13T15:11:57.692Z,3.30
2022-09-13T15:14:31.944Z,3.70
2022-09-13T15:17:08.045Z,4.68
2022-09-13T15:19:41.448Z,5.95
2022-09-13T15:22:24.751Z,4.05
2022-09-13T15:24:55.125Z,4.07
2022-09-13T15:27:28.609Z,4.97
2022-09-13T15:29:58.447Z,5.82
2022-09-13T15:32:33.827Z,2.47
2022-09-13T15:35:03.005Z,5.32
2022-09-13T15:37:34.268Z,3.97
2022-09-13T15:40:16.146Z,3.53
2022-09-13T15:42:48.258Z,3.65
2022-09-13T15:45:16.885Z,2.03
2022-09-13T15:47:48.241Z,4.25
2022-09-13T15:50:30.865Z,4.28
2022-09-13T15:52:59.773Z,4.70
2022-09-13T15:55:28.581Z,4.03
2022-09-13T15:57:56.515Z,6.22
2022-09-13T16:00:26.007Z,5.70
2022-09-13T16:02:55.484Z,6.63
2022-09-13T16:05:23.499Z,15.90
2022-09-13T16:07:51.396Z,2.67
2022-09-13T16:10:22.235Z,4.15
2022-09-13T16:12:51.429Z,5.88
2022-09-13T16:15:19.267Z,5.63
2022-09-13T16:17:47.635Z,4.32
2022-09-13T16:20:17.208Z,6.32
2022-09-13T16:22:44.992Z,2.95
2022-09-13T16:25:14.107Z,4.32
2022-09-13T16:27:44.598Z,2.05
2022-09-13T16:30:18.452Z,3.60
2022-09-13T16:32:46.221Z,4.95
2022-09-13T16:35:16.974Z,5.75
2022-09-13T16:37:45.313Z,4.05
2022-09-13T16:40:13.824Z,3.67
2022-09-13T16:42:41.641Z,6.13
2022-09-13T16:45:10.662Z,3.88
2022-09-13T16:47:38.851Z,5.40
2022-09-13T16:50:07.751Z,2.47
2022-09-13T16:52:37.519Z,5.75
2022-09-13T16:55:06.412Z,4.57
2022-09-13T16:57:34.444Z,4.78
2022-09-13T17:00:04.204Z,4.55
2022-09-13T17:02:32.027Z,3.15
2022-09-13T17:04:59.851Z,1.15
2022-09-13T17:07:27.817Z,5.97
2022-09-13T17:09:57.382Z,2.80
2022-09-13T17:12:25.156Z,3.80
2022-09-13T17:14:54.801Z,3.85
2022-09-13T17:17:22.584Z,5.07
2022-09-13T17:19:50.506Z,2.72
2022-09-13T17:22:18.213Z,3.60
2022-09-13T17:24:45.982Z,4.43
2022-09-13T17:27:15.049Z,3.22
2022-09-13T17:29:42.800Z,5.28
2022-09-13T17:32:10.692Z,4.90
2022-09-13T17:34:38.419Z,3.85
2022-09-13T17:37:06.794Z,4.72
2022-09-13T17:39:34.753Z,5.47
2022-09-13T17:42:02.552Z,3.00
2022-09-13T17:44:31.655Z,3.97
2022-09-13T17:46:59.470Z,3.58
2022-09-13T17:49:27.208Z,4.38
2022-09-13T17:51:54.926Z,3.53
2022-09-13T17:54:22.760Z,7.20
2022-09-13T17:56:51.842Z,4.57
2022-09-13T17:59:21.875Z,4.60
2022-09-13T18:01:52.791Z,7.75
2022-09-13T18:04:23.407Z,5.82
2022-09-13T18:06:52.514Z,8.05
2022-09-13T18:09:20.759Z,6.90
2022-09-13T18:11:48.697Z,6.43
2022-09-13T18:14:18.442Z,7.30
2022-09-13T18:16:46.849Z,5.20
2022-09-13T18:19:16.128Z,4.78
2022-09-13T18:21:43.851Z,6.45
2022-09-13T18:24:11.818Z,5.68
2022-09-13T18:26:39.544Z,5.30
2022-09-13T18:29:10.567Z,5.40
2022-09-13T18:31:39.466Z,4.50
2022-09-13T18:34:10.299Z,9.00
2022-09-13T18:36:40.056Z,6.30
2022-09-13T18:39:09.495Z,5.22
2022-09-13T18:41:40.436Z,4.15
2022-09-13T18:44:10.226Z,7.00
2022-09-13T18:46:38.826Z,9.52
2022-09-13T18:49:07.834Z,6.25
2022-09-13T18:51:37.210Z,6.78
2022-09-13T18:54:07.970Z,5.82
2022-09-13T18:56:36.169Z,6.70
2022-09-13T18:59:06.568Z,7.80
2022-09-13T19:01:36.245Z,6.70
2022-09-13T19:04:07.384Z,4.93
2022-09-13T19:06:36.897Z,3.95
2022-09-13T19:09:08.035Z,6.43
2022-09-13T19:11:53.319Z,6.93
2022-09-13T19:14:22.808Z,6.55
2022-09-13T19:16:51.457Z,4.55
2022-09-13T19:19:19.197Z,9.85
2022-09-13T19:21:47.347Z,5.57
2022-09-13T19:24:18.816Z,5.20
2022-09-13T19:26:48.500Z,8.23
2022-09-13T19:29:18.454Z,6.95
2022-09-13T19:31:49.032Z,5.03
2022-09-13T19:34:17.719Z,5.40
2022-09-13T19:36:45.849Z,4.10
2022-09-13T19:39:13.941Z,6.03
2022-09-13T19:41:43.223Z,4.57
2022-09-13T19:44:13.660Z,4.43
2022-09-13T19:46:42.580Z,5.82
2022-09-13T19:49:13.678Z,6.47
2022-09-13T19:51:42.549Z,5.22
2022-09-13T19:54:13.174Z,4.57
2022-09-13T19:56:44.068Z,4.25
2022-09-13T19:59:15.220Z,5.85
2022-09-13T20:01:45.589Z,9.48
2022-09-13T20:04:15.290Z,5.50
2022-09-13T20:06:45.599Z,6.80
2022-09-13T20:09:14.688Z,3.67
2022-09-13T20:11:45.281Z,5.93
2022-09-13T20:14:13.607Z,8.77
2022-09-13T20:16:42.646Z,7.07
2022-09-13T20:19:39.078Z,5.68
2022-09-13T20:22:03.248Z,4.95
2022-09-13T20:24:30.987Z,5.93
2022-09-13T20:27:00.268Z,5.03
2022-09-13T20:29:28.206Z,5.60
2022-09-13T20:31:56.191Z,6.10
2022-09-13T20:34:24.026Z,7.35
2022-09-13T20:36:51.986Z,6.03
2022-09-13T20:39:19.918Z,4.78
2022-09-13T20:41:49.369Z,5.97
2022-09-13T20:44:19.074Z,4.15
2022-09-13T20:46:46.868Z,4.95
2022-09-13T20:49:14.595Z,5.30
2022-09-13T20:51:42.346Z,6.13
2022-09-13T20:54:13.536Z,4.78
2022-09-13T20:56:41.381Z,6.47
2022-09-13T20:59:09.984Z,5.45
2022-09-13T21:01:39.842Z,7.28
2022-09-13T21:04:07.644Z,6.53
2022-09-13T21:06:39.451Z,8.20
2022-09-13T21:09:06.400Z,6.20
2022-09-13T21:11:36.555Z,6.10
2022-09-13T21:14:07.324Z,5.88
2022-09-13T21:16:37.353Z,4.65
2022-09-13T21:19:06.692Z,6.85
2022-09-13T21:21:35.878Z,4.40
2022-09-13T21:24:05.753Z,6.18
2022-09-13T21:26:33.900Z,4.32
2022-09-13T21:29:01.898Z,4.70
2022-09-13T21:31:31.339Z,4.78
2022-09-13T21:34:01.011Z,7.15
2022-09-13T21:36:30.923Z,5.80
2022-09-13T21:38:59.478Z,4.70
2022-09-13T21:41:28.102Z,8.05
2022-09-13T21:43:55.964Z,5.43
2022-09-13T21:46:25.054Z,5.03
2022-09-13T21:48:55.635Z,9.05
2022-09-13T21:51:25.896Z,4.28
2022-09-13T21:53:58.808Z,5.80
2022-09-13T21:56:29.244Z,4.90
2022-09-13T21:58:59.180Z,4.15
2022-09-13T22:01:28.915Z,4.80
2022-09-13T22:03:57.194Z,7.22
2022-09-13T22:06:27.403Z,5.40
2022-09-13T22:09:01.180Z,4.72
2022-09-13T22:11:30.584Z,5.95
2022-09-13T22:13:59.508Z,3.00
2022-09-13T22:16:29.538Z,4.55
2022-09-13T22:18:59.439Z,4.82
2022-09-13T22:21:30.960Z,4.55
2022-09-13T22:24:00.473Z,6.53
2022-09-13T22:26:30.849Z,4.00
2022-09-13T22:28:59.618Z,4.22
2022-09-13T22:31:31.140Z,2.95
2022-09-13T22:34:00.494Z,5.50
2022-09-13T22:36:29.478Z,4.05
2022-09-13T22:38:57.965Z,3.38
2022-09-13T22:41:28.877Z,4.95
2022-09-13T22:43:58.133Z,3.85
2022-09-13T22:46:28.120Z,4.57
2022-09-13T22:48:56.466Z,5.28
2022-09-13T22:51:25.232Z,6.72
2022-09-13T22:53:54.067Z,6.30
2022-09-13T22:56:24.907Z,4.22
2022-09-13T22:58:56.486Z,4.78
2022-09-13T23:01:25.855Z,4.38
2022-09-13T23:03:54.308Z,8.23
2022-09-13T23:06:23.664Z,4.30
2022-09-13T23:08:52.723Z,4.90
2022-09-13T23:11:22.128Z,6.57
2022-09-13T23:13:51.605Z,3.38
2022-09-13T23:16:23.905Z,4.82
2022-09-13T23:18:52.258Z,6.07
2022-09-13T23:21:21.699Z,5.38
2022-09-13T23:23:49.600Z,2.92
2022-09-13T23:26:20.378Z,5.15
2022-09-13T23:28:53.659Z,8.00
2022-09-13T23:31:24.244Z,3.67
2022-09-13T23:33:53.623Z,3.90
2022-09-13T23:36:23.430Z,5.00
2022-09-13T23:38:52.937Z,6.20
2022-09-13T23:41:21.601Z,6.60
2022-09-13T23:43:50.018Z,4.70
2022-09-13T23:46:18.360Z,4.95
2022-09-13T23:48:47.831Z,4.95
2022-09-13T23:51:18.426Z,7.18
2022-09-13T23:53:46.687Z,3.35
2022-09-13T23:56:16.676Z,2.17
2022-09-13T23:58:44.798Z,2.60
